sensor_id;sensor_type;location;lat;lon;timestamp;temperature;humidity
26687;DHT22;14298;50.900;4.648;2023-01-15T00:00:03;7.90;97.10
26687;DHT22;14298;50.900;4.648;2023-01-15T00:02:32;7.90;97.10
26687;DHT22;14298;50.900;4.648;2023-01-15T00:05:00;7.90;97.10
26687;DHT22;14298;50.900;4.648;2023-01-15T00:07:30;7.90;97.10
26687;DHT22;14298;50.900;4.648;2023-01-15T00:09:58;8.00;97.10
26687;DHT22;14298;50.900;4.648;2023-01-15T00:12:26;8.00;97.10
26687;DHT22;14298;50.900;4.648;2023-01-15T00:14:55;8.00;97.10
26687;DHT22;14298;50.900;4.648;2023-01-15T00:17:24;8.00;97.10
26687;DHT22;14298;50.900;4.648;2023-01-15T00:19:52;8.00;97.10
26687;DHT22;14298;50.900;4.648;2023-01-15T00:22:21;8.00;97.10
26687;DHT22;14298;50.900;4.648;2023-01-15T00:24:49;8.00;97.10
26687;DHT22;14298;50.900;4.648;2023-01-15T00:27:54;7.90;97.10
26687;DHT22;14298;50.900;4.648;2023-01-15T00:30:23;8.00;97.10
26687;DHT22;14298;50.900;4.648;2023-01-15T00:32:51;8.00;97.10
26687;DHT22;14298;50.900;4.648;2023-01-15T00:35:21;8.00;97.10
26687;DHT22;14298;50.900;4.648;2023-01-15T00:37:50;8.10;97.10
26687;DHT22;14298;50.900;4.648;2023-01-15T00:40:19;8.10;97.10
26687;DHT22;14298;50.900;4.648;2023-01-15T00:42:48;8.10;97.10
26687;DHT22;14298;50.900;4.648;2023-01-15T00:45:16;8.10;97.10
26687;DHT22;14298;50.900;4.648;2023-01-15T00:47:44;8.10;97.10
26687;DHT22;14298;50.900;4.648;2023-01-15T00:50:15;8.10;97.10
26687;DHT22;14298;50.900;4.648;2023-01-15T00:52:43;8.10;97.10
26687;DHT22;14298;50.900;4.648;2023-01-15T00:55:12;8.10;97.10
26687;DHT22;14298;50.900;4.648;2023-01-15T00:57:40;8.10;97.10
26687;DHT22;14298;50.900;4.648;2023-01-15T01:00:09;8.10;97.10
26687;DHT22;14298;50.900;4.648;2023-01-15T01:02:38;8.10;97.10
26687;DHT22;14298;50.900;4.648;2023-01-15T01:05:07;8.20;97.10
26687;DHT22;14298;50.900;4.648;2023-01-15T01:07:36;8.20;97.10
26687;DHT22;14298;50.900;4.648;2023-01-15T01:10:04;8.20;97.10
26687;DHT22;14298;50.900;4.648;2023-01-15T01:12:33;8.20;97.10
26687;DHT22;14298;50.900;4.648;2023-01-15T01:15:01;8.20;97.10
26687;DHT22;14298;50.900;4.648;2023-01-15T01:17:29;8.20;97.10
26687;DHT22;14298;50.900;4.648;2023-01-15T01:19:58;8.20;97.10
26687;DHT22;14298;50.900;4.648;2023-01-15T01:22:26;8.20;97.10
26687;DHT22;14298;50.900;4.648;2023-01-15T01:24:54;8.10;97.10
26687;DHT22;14298;50.900;4.648;2023-01-15T01:27:23;8.10;97.10
26687;DHT22;14298;50.900;4.648;2023-01-15T01:29:51;8.20;97.10
26687;DHT22;14298;50.900;4.648;2023-01-15T01:32:20;8.10;97.10
26687;DHT22;14298;50.900;4.648;2023-01-15T01:34:48;8.10;97.10
26687;DHT22;14298;50.900;4.648;2023-01-15T01:37:17;8.10;97.10
26687;DHT22;14298;50.900;4.648;2023-01-15T01:39:45;8.10;97.10
26687;DHT22;14298;50.900;4.648;2023-01-15T01:42:15;8.10;97.10
26687;DHT22;14298;50.900;4.648;2023-01-15T01:47:17;8.10;97.10
26687;DHT22;14298;50.900;4.648;2023-01-15T01:49:51;8.10;97.10
26687;DHT22;14298;50.900;4.648;2023-01-15T01:52:26;8.10;97.10
26687;DHT22;14298;50.900;4.648;2023-01-15T01:54:54;8.00;97.10
26687;DHT22;14298;50.900;4.648;2023-01-15T01:57:24;8.00;97.10
26687;DHT22;14298;50.900;4.648;2023-01-15T01:59:52;8.00;97.10
26687;DHT22;14298;50.900;4.648;2023-01-15T02:02:22;8.00;97.10
26687;DHT22;14298;50.900;4.648;2023-01-15T02:04:51;7.90;97.10
26687;DHT22;14298;50.900;4.648;2023-01-15T02:07:19;8.00;97.10
26687;DHT22;14298;50.900;4.648;2023-01-15T02:09:48;7.90;97.10
26687;DHT22;14298;50.900;4.648;2023-01-15T02:12:34;7.90;97.10
26687;DHT22;14298;50.900;4.648;2023-01-15T02:15:25;7.90;97.10
26687;DHT22;14298;50.900;4.648;2023-01-15T02:26:25;7.80;97.10
26687;DHT22;14298;50.900;4.648;2023-01-15T02:28:52;7.80;97.10
26687;DHT22;14298;50.900;4.648;2023-01-15T02:31:27;7.70;97.10
26687;DHT22;14298;50.900;4.648;2023-01-15T02:34:09;7.70;97.10
26687;DHT22;14298;50.900;4.648;2023-01-15T02:36:38;7.70;97.10
26687;DHT22;14298;50.900;4.648;2023-01-15T02:39:09;7.70;97.10
26687;DHT22;14298;50.900;4.648;2023-01-15T02:41:47;7.60;97.10
26687;DHT22;14298;50.900;4.648;2023-01-15T02:44:20;7.60;97.10
26687;DHT22;14298;50.900;4.648;2023-01-15T02:46:49;7.60;97.10
26687;DHT22;14298;50.900;4.648;2023-01-15T02:49:19;7.60;97.10
26687;DHT22;14298;50.900;4.648;2023-01-15T02:52:01;7.60;97.10
26687;DHT22;14298;50.900;4.648;2023-01-15T02:54:26;7.50;97.10
26687;DHT22;14298;50.900;4.648;2023-01-15T02:56:57;7.50;97.10
26687;DHT22;14298;50.900;4.648;2023-01-15T02:59:35;7.50;97.10
26687;DHT22;14298;50.900;4.648;2023-01-15T03:02:09;7.50;97.10
26687;DHT22;14298;50.900;4.648;2023-01-15T03:04:43;7.50;97.10
26687;DHT22;14298;50.900;4.648;2023-01-15T03:07:16;7.50;97.10
26687;DHT22;14298;50.900;4.648;2023-01-15T03:09:44;7.50;97.10
26687;DHT22;14298;50.900;4.648;2023-01-15T03:15:06;7.40;97.10
26687;DHT22;14298;50.900;4.648;2023-01-15T03:17:37;7.40;97.10
26687;DHT22;14298;50.900;4.648;2023-01-15T03:20:11;7.40;97.10
26687;DHT22;14298;50.900;4.648;2023-01-15T03:22:43;7.40;97.10
26687;DHT22;14298;50.900;4.648;2023-01-15T03:25:15;7.40;97.10
26687;DHT22;14298;50.900;4.648;2023-01-15T03:27:43;7.40;97.10
26687;DHT22;14298;50.900;4.648;2023-01-15T03:30:15;7.50;97.10
26687;DHT22;14298;50.900;4.648;2023-01-15T03:32:43;7.40;97.10
26687;DHT22;14298;50.900;4.648;2023-01-15T03:35:46;7.40;97.10
26687;DHT22;14298;50.900;4.648;2023-01-15T03:38:17;7.40;97.10
26687;DHT22;14298;50.900;4.648;2023-01-15T03:43:39;7.40;97.10
26687;DHT22;14298;50.900;4.648;2023-01-15T03:46:21;7.40;97.10
26687;DHT22;14298;50.900;4.648;2023-01-15T03:54:23;7.30;97.10
26687;DHT22;14298;50.900;4.648;2023-01-15T03:57:01;7.30;97.10
26687;DHT22;14298;50.900;4.648;2023-01-15T03:59:33;7.30;97.10
26687;DHT22;14298;50.900;4.648;2023-01-15T04:02:04;7.30;97.10
26687;DHT22;14298;50.900;4.648;2023-01-15T04:04:34;7.30;97.10
26687;DHT22;14298;50.900;4.648;2023-01-15T04:07:03;7.20;97.10
26687;DHT22;14298;50.900;4.648;2023-01-15T04:09:35;7.30;97.10
26687;DHT22;14298;50.900;4.648;2023-01-15T04:12:01;7.20;97.10
26687;DHT22;14298;50.900;4.648;2023-01-15T04:14:30;7.20;97.10
26687;DHT22;14298;50.900;4.648;2023-01-15T04:16:59;7.20;97.10
26687;DHT22;14298;50.900;4.648;2023-01-15T04:19:28;7.20;97.10
26687;DHT22;14298;50.900;4.648;2023-01-15T04:21:56;7.20;97.10
26687;DHT22;14298;50.900;4.648;2023-01-15T04:24:24;7.10;97.10
26687;DHT22;14298;50.900;4.648;2023-01-15T04:26:53;7.10;97.10
26687;DHT22;14298;50.900;4.648;2023-01-15T04:29:21;7.10;97.10
26687;DHT22;14298;50.900;4.648;2023-01-15T04:31:50;7.10;97.10
26687;DHT22;14298;50.900;4.648;2023-01-15T04:34:20;7.10;97.10
26687;DHT22;14298;50.900;4.648;2023-01-15T04:36:48;7.10;97.10
26687;DHT22;14298;50.900;4.648;2023-01-15T04:39:16;7.10;97.10
26687;DHT22;14298;50.900;4.648;2023-01-15T04:41:45;7.10;97.10
26687;DHT22;14298;50.900;4.648;2023-01-15T04:44:33;7.10;97.10
26687;DHT22;14298;50.900;4.648;2023-01-15T04:47:02;7.10;97.10
26687;DHT22;14298;50.900;4.648;2023-01-15T04:49:30;7.00;97.10
26687;DHT22;14298;50.900;4.648;2023-01-15T04:51:59;7.10;97.10
26687;DHT22;14298;50.900;4.648;2023-01-15T04:54:28;7.00;97.10
26687;DHT22;14298;50.900;4.648;2023-01-15T04:56:56;7.10;97.10
26687;DHT22;14298;50.900;4.648;2023-01-15T04:59:26;7.10;97.10
26687;DHT22;14298;50.900;4.648;2023-01-15T05:01:54;7.10;97.10
26687;DHT22;14298;50.900;4.648;2023-01-15T05:04:23;7.10;97.10
26687;DHT22;14298;50.900;4.648;2023-01-15T05:06:51;7.10;97.10
26687;DHT22;14298;50.900;4.648;2023-01-15T05:09:20;7.10;97.10
26687;DHT22;14298;50.900;4.648;2023-01-15T05:11:48;7.00;97.10
26687;DHT22;14298;50.900;4.648;2023-01-15T05:14:36;7.00;97.10
26687;DHT22;14298;50.900;4.648;2023-01-15T05:17:04;7.00;97.10
26687;DHT22;14298;50.900;4.648;2023-01-15T05:19:32;7.00;97.10
26687;DHT22;14298;50.900;4.648;2023-01-15T05:22:01;6.90;97.10
26687;DHT22;14298;50.900;4.648;2023-01-15T05:24:29;6.90;97.10
26687;DHT22;14298;50.900;4.648;2023-01-15T05:26:57;6.90;97.10
26687;DHT22;14298;50.900;4.648;2023-01-15T05:29:26;6.90;97.10
26687;DHT22;14298;50.900;4.648;2023-01-15T05:31:54;6.90;97.10
26687;DHT22;14298;50.900;4.648;2023-01-15T05:34:22;6.80;97.10
26687;DHT22;14298;50.900;4.648;2023-01-15T05:36:51;6.80;97.10
26687;DHT22;14298;50.900;4.648;2023-01-15T05:39:20;6.80;97.10
26687;DHT22;14298;50.900;4.648;2023-01-15T05:41:48;6.80;97.10
26687;DHT22;14298;50.900;4.648;2023-01-15T05:44:28;6.70;97.10
26687;DHT22;14298;50.900;4.648;2023-01-15T05:47:01;6.70;97.10
26687;DHT22;14298;50.900;4.648;2023-01-15T05:49:31;6.70;97.10
26687;DHT22;14298;50.900;4.648;2023-01-15T05:52:00;6.70;97.10
26687;DHT22;14298;50.900;4.648;2023-01-15T05:54:31;6.60;97.10
26687;DHT22;14298;50.900;4.648;2023-01-15T05:57:01;6.60;97.10
26687;DHT22;14298;50.900;4.648;2023-01-15T05:59:30;6.60;97.10
26687;DHT22;14298;50.900;4.648;2023-01-15T06:01:59;6.60;97.10
26687;DHT22;14298;50.900;4.648;2023-01-15T06:04:27;6.60;97.10
26687;DHT22;14298;50.900;4.648;2023-01-15T06:06:56;6.60;97.10
26687;DHT22;14298;50.900;4.648;2023-01-15T06:09:26;6.70;97.10
26687;DHT22;14298;50.900;4.648;2023-01-15T06:11:56;6.60;97.10
26687;DHT22;14298;50.900;4.648;2023-01-15T06:14:24;6.50;97.10
26687;DHT22;14298;50.900;4.648;2023-01-15T06:16:53;6.30;97.10
26687;DHT22;14298;50.900;4.648;2023-01-15T06:19:21;6.20;97.10
26687;DHT22;14298;50.900;4.648;2023-01-15T06:21:49;6.10;97.10
26687;DHT22;14298;50.900;4.648;2023-01-15T06:24:18;5.90;97.10
26687;DHT22;14298;50.900;4.648;2023-01-15T06:26:47;5.70;97.10
26687;DHT22;14298;50.900;4.648;2023-01-15T06:29:15;5.60;97.10
26687;DHT22;14298;50.900;4.648;2023-01-15T06:31:45;5.50;97.10
26687;DHT22;14298;50.900;4.648;2023-01-15T06:34:14;5.50;97.10
26687;DHT22;14298;50.900;4.648;2023-01-15T06:36:42;5.40;97.10
26687;DHT22;14298;50.900;4.648;2023-01-15T06:39:11;5.40;97.10
26687;DHT22;14298;50.900;4.648;2023-01-15T06:41:39;5.40;97.10
26687;DHT22;14298;50.900;4.648;2023-01-15T06:44:25;5.40;97.10
26687;DHT22;14298;50.900;4.648;2023-01-15T06:47:31;5.40;97.10
26687;DHT22;14298;50.900;4.648;2023-01-15T06:49:59;5.40;97.10
26687;DHT22;14298;50.900;4.648;2023-01-15T06:52:29;5.40;97.10
26687;DHT22;14298;50.900;4.648;2023-01-15T06:54:57;5.40;97.10
26687;DHT22;14298;50.900;4.648;2023-01-15T06:57:25;5.30;97.10
26687;DHT22;14298;50.900;4.648;2023-01-15T06:59:54;5.30;97.10
26687;DHT22;14298;50.900;4.648;2023-01-15T07:02:22;5.30;97.10
26687;DHT22;14298;50.900;4.648;2023-01-15T07:04:50;5.30;97.10
26687;DHT22;14298;50.900;4.648;2023-01-15T07:07:20;5.20;97.10
26687;DHT22;14298;50.900;4.648;2023-01-15T07:09:48;5.20;97.10
26687;DHT22;14298;50.900;4.648;2023-01-15T07:12:17;5.20;97.10
26687;DHT22;14298;50.900;4.648;2023-01-15T07:14:45;5.30;97.10
26687;DHT22;14298;50.900;4.648;2023-01-15T07:17:14;5.30;97.10
26687;DHT22;14298;50.900;4.648;2023-01-15T07:19:44;5.30;97.10
26687;DHT22;14298;50.900;4.648;2023-01-15T07:22:13;5.30;97.10
26687;DHT22;14298;50.900;4.648;2023-01-15T07:24:41;5.30;97.10
26687;DHT22;14298;50.900;4.648;2023-01-15T07:27:10;5.30;97.10
26687;DHT22;14298;50.900;4.648;2023-01-15T07:29:38;5.30;97.10
26687;DHT22;14298;50.900;4.648;2023-01-15T07:32:06;5.20;97.10
26687;DHT22;14298;50.900;4.648;2023-01-15T07:34:35;5.20;97.10
26687;DHT22;14298;50.900;4.648;2023-01-15T07:37:03;5.20;97.10
26687;DHT22;14298;50.900;4.648;2023-01-15T07:39:31;5.20;97.10
26687;DHT22;14298;50.900;4.648;2023-01-15T07:41:59;5.20;97.10
26687;DHT22;14298;50.900;4.648;2023-01-15T07:44:46;5.20;97.10
26687;DHT22;14298;50.900;4.648;2023-01-15T07:47:32;5.20;97.10
26687;DHT22;14298;50.900;4.648;2023-01-15T07:50:21;5.20;97.10
26687;DHT22;14298;50.900;4.648;2023-01-15T07:52:50;5.20;97.10
26687;DHT22;14298;50.900;4.648;2023-01-15T07:55:18;5.20;97.10
26687;DHT22;14298;50.900;4.648;2023-01-15T07:58:06;5.20;97.10
26687;DHT22;14298;50.900;4.648;2023-01-15T08:00:34;5.30;97.10
26687;DHT22;14298;50.900;4.648;2023-01-15T08:03:03;5.30;97.10
26687;DHT22;14298;50.900;4.648;2023-01-15T08:05:32;5.30;97.10
26687;DHT22;14298;50.900;4.648;2023-01-15T08:08:01;5.30;97.10
26687;DHT22;14298;50.900;4.648;2023-01-15T08:10:29;5.30;97.10
26687;DHT22;14298;50.900;4.648;2023-01-15T08:12:57;5.30;97.10
26687;DHT22;14298;50.900;4.648;2023-01-15T08:15:44;5.30;97.10
26687;DHT22;14298;50.900;4.648;2023-01-15T08:18:12;5.40;97.10
26687;DHT22;14298;50.900;4.648;2023-01-15T08:20:40;5.40;97.10
26687;DHT22;14298;50.900;4.648;2023-01-15T08:23:09;5.40;97.10
26687;DHT22;14298;50.900;4.648;2023-01-15T08:25:37;5.40;97.10
26687;DHT22;14298;50.900;4.648;2023-01-15T08:28:06;5.40;97.10
26687;DHT22;14298;50.900;4.648;2023-01-15T08:30:34;5.50;97.10
26687;DHT22;14298;50.900;4.648;2023-01-15T08:33:02;5.60;97.10
26687;DHT22;14298;50.900;4.648;2023-01-15T08:35:31;5.70;97.10
26687;DHT22;14298;50.900;4.648;2023-01-15T08:38:05;6.00;97.10
26687;DHT22;14298;50.900;4.648;2023-01-15T08:40:34;6.30;97.10
26687;DHT22;14298;50.900;4.648;2023-01-15T08:43:04;6.50;97.10
26687;DHT22;14298;50.900;4.648;2023-01-15T08:45:33;6.90;97.10
26687;DHT22;14298;50.900;4.648;2023-01-15T08:48:01;7.10;97.10
26687;DHT22;14298;50.900;4.648;2023-01-15T08:50:30;7.30;97.10
26687;DHT22;14298;50.900;4.648;2023-01-15T08:52:58;7.60;97.10
26687;DHT22;14298;50.900;4.648;2023-01-15T08:55:26;7.80;97.10
26687;DHT22;14298;50.900;4.648;2023-01-15T08:57:54;7.40;97.10
26687;DHT22;14298;50.900;4.648;2023-01-15T09:00:23;7.30;97.10
26687;DHT22;14298;50.900;4.648;2023-01-15T09:02:51;7.00;97.10
26687;DHT22;14298;50.900;4.648;2023-01-15T09:05:19;7.10;97.10
26687;DHT22;14298;50.900;4.648;2023-01-15T09:07:48;7.30;97.10
26687;DHT22;14298;50.900;4.648;2023-01-15T09:10:16;7.60;97.10
26687;DHT22;14298;50.900;4.648;2023-01-15T09:12:45;7.80;97.10
26687;DHT22;14298;50.900;4.648;2023-01-15T09:15:13;8.20;97.10
26687;DHT22;14298;50.900;4.648;2023-01-15T09:17:42;8.50;97.10
26687;DHT22;14298;50.900;4.648;2023-01-15T09:20:11;8.60;97.10
26687;DHT22;14298;50.900;4.648;2023-01-15T09:22:40;8.80;97.10
26687;DHT22;14298;50.900;4.648;2023-01-15T09:25:09;8.70;97.10
26687;DHT22;14298;50.900;4.648;2023-01-15T09:27:37;8.30;97.10
26687;DHT22;14298;50.900;4.648;2023-01-15T09:30:07;7.50;97.10
26687;DHT22;14298;50.900;4.648;2023-01-15T09:32:35;7.20;97.10
26687;DHT22;14298;50.900;4.648;2023-01-15T09:35:04;7.00;97.10
26687;DHT22;14298;50.900;4.648;2023-01-15T09:37:32;6.80;97.10
26687;DHT22;14298;50.900;4.648;2023-01-15T09:40:01;6.70;97.10
26687;DHT22;14298;50.900;4.648;2023-01-15T09:45:25;6.80;97.10
26687;DHT22;14298;50.900;4.648;2023-01-15T09:53:23;6.50;97.10
26687;DHT22;14298;50.900;4.648;2023-01-15T09:55:50;6.40;97.10
26687;DHT22;14298;50.900;4.648;2023-01-15T09:58:22;6.40;97.10
26687;DHT22;14298;50.900;4.648;2023-01-15T10:00:51;6.40;97.10
26687;DHT22;14298;50.900;4.648;2023-01-15T10:03:30;6.40;97.10
26687;DHT22;14298;50.900;4.648;2023-01-15T10:06:12;6.30;97.10
26687;DHT22;14298;50.900;4.648;2023-01-15T10:08:45;6.30;97.10
26687;DHT22;14298;50.900;4.648;2023-01-15T10:13:48;6.40;97.10
26687;DHT22;14298;50.900;4.648;2023-01-15T10:16:36;6.40;97.10
26687;DHT22;14298;50.900;4.648;2023-01-15T10:19:04;6.30;97.10
26687;DHT22;14298;50.900;4.648;2023-01-15T10:21:46;6.20;97.10
26687;DHT22;14298;50.900;4.648;2023-01-15T10:24:37;6.20;97.10
26687;DHT22;14298;50.900;4.648;2023-01-15T10:27:17;6.20;97.10
26687;DHT22;14298;50.900;4.648;2023-01-15T10:30:25;6.20;97.10
26687;DHT22;14298;50.900;4.648;2023-01-15T10:32:55;6.20;97.10
26687;DHT22;14298;50.900;4.648;2023-01-15T10:35:40;6.20;97.10
26687;DHT22;14298;50.900;4.648;2023-01-15T10:38:15;6.20;97.10
26687;DHT22;14298;50.900;4.648;2023-01-15T10:46:17;6.00;97.10
26687;DHT22;14298;50.900;4.648;2023-01-15T10:48:51;6.00;97.10
26687;DHT22;14298;50.900;4.648;2023-01-15T10:51:40;6.10;97.10
26687;DHT22;14298;50.900;4.648;2023-01-15T10:54:17;6.20;97.10
26687;DHT22;14298;50.900;4.648;2023-01-15T10:56:44;6.30;97.10
26687;DHT22;14298;50.900;4.648;2023-01-15T11:01:54;6.50;97.10
26687;DHT22;14298;50.900;4.648;2023-01-15T11:04:25;6.50;97.10
26687;DHT22;14298;50.900;4.648;2023-01-15T11:06:54;6.60;97.10
26687;DHT22;14298;50.900;4.648;2023-01-15T11:09:24;6.70;97.10
26687;DHT22;14298;50.900;4.648;2023-01-15T11:12:21;6.70;97.10
26687;DHT22;14298;50.900;4.648;2023-01-15T11:14:52;6.70;97.10
26687;DHT22;14298;50.900;4.648;2023-01-15T11:17:44;6.70;97.10
26687;DHT22;14298;50.900;4.648;2023-01-15T11:23:20;6.70;97.10
26687;DHT22;14298;50.900;4.648;2023-01-15T11:25:52;6.80;97.10
26687;DHT22;14298;50.900;4.648;2023-01-15T11:28:38;6.80;97.10
26687;DHT22;14298;50.900;4.648;2023-01-15T11:31:09;6.80;97.10
26687;DHT22;14298;50.900;4.648;2023-01-15T11:33:38;7.00;97.10
26687;DHT22;14298;50.900;4.648;2023-01-15T11:36:19;7.10;97.10
26687;DHT22;14298;50.900;4.648;2023-01-15T11:38:49;7.10;97.10
26687;DHT22;14298;50.900;4.648;2023-01-15T11:41:37;7.00;97.10
26687;DHT22;14298;50.900;4.648;2023-01-15T11:44:23;7.00;97.10
26687;DHT22;14298;50.900;4.648;2023-01-15T11:47:28;7.20;97.10
26687;DHT22;14298;50.900;4.648;2023-01-15T11:50:18;7.30;97.10
26687;DHT22;14298;50.900;4.648;2023-01-15T11:53:07;7.30;97.10
26687;DHT22;14298;50.900;4.648;2023-01-15T11:55:36;7.20;97.10
26687;DHT22;14298;50.900;4.648;2023-01-15T11:58:07;7.30;97.10
26687;DHT22;14298;50.900;4.648;2023-01-15T12:00:40;7.40;97.10
26687;DHT22;14298;50.900;4.648;2023-01-15T12:03:17;7.40;97.10
26687;DHT22;14298;50.900;4.648;2023-01-15T12:06:01;7.40;97.10
26687;DHT22;14298;50.900;4.648;2023-01-15T12:08:38;7.40;97.10
26687;DHT22;14298;50.900;4.648;2023-01-15T12:19:51;7.70;97.10
26687;DHT22;14298;50.900;4.648;2023-01-15T12:22:29;7.60;97.10
26687;DHT22;14298;50.900;4.648;2023-01-15T12:28:11;7.50;97.10
26687;DHT22;14298;50.900;4.648;2023-01-15T12:31:03;7.60;97.10
26687;DHT22;14298;50.900;4.648;2023-01-15T12:33:54;7.70;97.10
26687;DHT22;14298;50.900;4.648;2023-01-15T12:36:31;7.80;97.10
26687;DHT22;14298;50.900;4.648;2023-01-15T12:39:26;7.80;97.10
26687;DHT22;14298;50.900;4.648;2023-01-15T12:41:51;7.70;97.10
26687;DHT22;14298;50.900;4.648;2023-01-15T12:44:53;7.60;97.10
26687;DHT22;14298;50.900;4.648;2023-01-15T12:50:51;7.30;97.10
26687;DHT22;14298;50.900;4.648;2023-01-15T12:59:05;7.30;97.10
26687;DHT22;14298;50.900;4.648;2023-01-15T13:01:47;7.40;97.10
26687;DHT22;14298;50.900;4.648;2023-01-15T13:04:11;7.50;97.10
26687;DHT22;14298;50.900;4.648;2023-01-15T13:06:43;7.60;97.10
26687;DHT22;14298;50.900;4.648;2023-01-15T13:11:57;7.80;97.10
26687;DHT22;14298;50.900;4.648;2023-01-15T13:14:25;7.70;97.10
26687;DHT22;14298;50.900;4.648;2023-01-15T13:20:08;7.80;97.10
26687;DHT22;14298;50.900;4.648;2023-01-15T13:22:38;7.80;97.10
26687;DHT22;14298;50.900;4.648;2023-01-15T13:25:10;7.80;97.10
26687;DHT22;14298;50.900;4.648;2023-01-15T13:28:00;7.70;97.10
26687;DHT22;14298;50.900;4.648;2023-01-15T13:35:50;7.60;97.10
26687;DHT22;14298;50.900;4.648;2023-01-15T13:38:21;7.60;97.10
26687;DHT22;14298;50.900;4.648;2023-01-15T13:40:53;7.70;97.10
26687;DHT22;14298;50.900;4.648;2023-01-15T13:43:40;7.70;97.10
26687;DHT22;14298;50.900;4.648;2023-01-15T13:46:11;7.70;97.10
26687;DHT22;14298;50.900;4.648;2023-01-15T13:51:29;7.70;97.10
26687;DHT22;14298;50.900;4.648;2023-01-15T13:53:59;7.70;97.10
26687;DHT22;14298;50.900;4.648;2023-01-15T13:56:32;7.80;97.10
26687;DHT22;14298;50.900;4.648;2023-01-15T13:59:05;7.70;97.10
26687;DHT22;14298;50.900;4.648;2023-01-15T14:01:35;7.60;97.10
26687;DHT22;14298;50.900;4.648;2023-01-15T14:04:06;7.50;97.10
26687;DHT22;14298;50.900;4.648;2023-01-15T14:06:52;7.40;97.10
26687;DHT22;14298;50.900;4.648;2023-01-15T14:15:25;7.20;97.10
26687;DHT22;14298;50.900;4.648;2023-01-15T14:18:15;7.20;97.10
26687;DHT22;14298;50.900;4.648;2023-01-15T14:26:51;6.90;97.10
26687;DHT22;14298;50.900;4.648;2023-01-15T14:35:12;6.60;97.10
26687;DHT22;14298;50.900;4.648;2023-01-15T14:40:40;6.60;97.10
26687;DHT22;14298;50.900;4.648;2023-01-15T14:42:55;6.70;97.10
26687;DHT22;14298;50.900;4.648;2023-01-15T14:45:37;6.70;97.10
26687;DHT22;14298;50.900;4.648;2023-01-15T14:51:10;6.60;97.10
26687;DHT22;14298;50.900;4.648;2023-01-15T14:53:50;6.50;97.10
26687;DHT22;14298;50.900;4.648;2023-01-15T14:59:19;6.50;97.10
26687;DHT22;14298;50.900;4.648;2023-01-15T15:04:53;6.50;97.10
26687;DHT22;14298;50.900;4.648;2023-01-15T15:07:25;6.50;97.10
26687;DHT22;14298;50.900;4.648;2023-01-15T15:10:23;6.60;97.10
26687;DHT22;14298;50.900;4.648;2023-01-15T15:13:14;6.60;97.10
26687;DHT22;14298;50.900;4.648;2023-01-15T15:16:17;6.60;97.10
26687;DHT22;14298;50.900;4.648;2023-01-15T15:18:53;6.40;97.10
26687;DHT22;14298;50.900;4.648;2023-01-15T15:21:28;6.40;97.10
26687;DHT22;14298;50.900;4.648;2023-01-15T15:24:06;6.30;97.10
26687;DHT22;14298;50.900;4.648;2023-01-15T15:26:36;6.30;97.10
26687;DHT22;14298;50.900;4.648;2023-01-15T15:29:13;6.30;97.10
26687;DHT22;14298;50.900;4.648;2023-01-15T15:34:33;6.50;97.10
26687;DHT22;14298;50.900;4.648;2023-01-15T15:37:09;6.40;97.10
26687;DHT22;14298;50.900;4.648;2023-01-15T15:42:30;6.40;97.10
26687;DHT22;14298;50.900;4.648;2023-01-15T15:48:20;6.30;97.10
26687;DHT22;14298;50.900;4.648;2023-01-15T15:51:28;6.30;97.10
26687;DHT22;14298;50.900;4.648;2023-01-15T15:54:20;6.30;97.10
26687;DHT22;14298;50.900;4.648;2023-01-15T15:57:06;6.40;97.10
26687;DHT22;14298;50.900;4.648;2023-01-15T15:59:44;6.40;97.10
26687;DHT22;14298;50.900;4.648;2023-01-15T16:02:20;6.40;97.10
26687;DHT22;14298;50.900;4.648;2023-01-15T16:04:51;6.40;97.10
26687;DHT22;14298;50.900;4.648;2023-01-15T16:07:22;6.40;97.10
26687;DHT22;14298;50.900;4.648;2023-01-15T16:10:08;6.40;97.10
26687;DHT22;14298;50.900;4.648;2023-01-15T16:12:25;6.40;97.10
26687;DHT22;14298;50.900;4.648;2023-01-15T16:14:55;6.40;97.10
26687;DHT22;14298;50.900;4.648;2023-01-15T16:17:25;6.40;97.10
26687;DHT22;14298;50.900;4.648;2023-01-15T16:19:55;6.40;97.10
26687;DHT22;14298;50.900;4.648;2023-01-15T16:22:24;6.40;97.10
26687;DHT22;14298;50.900;4.648;2023-01-15T16:24:57;6.30;97.10
26687;DHT22;14298;50.900;4.648;2023-01-15T16:27:30;6.20;97.10
26687;DHT22;14298;50.900;4.648;2023-01-15T16:29:57;6.20;97.10
26687;DHT22;14298;50.900;4.648;2023-01-15T16:32:30;6.10;97.10
26687;DHT22;14298;50.900;4.648;2023-01-15T16:35:13;6.00;97.10
26687;DHT22;14298;50.900;4.648;2023-01-15T16:37:37;5.90;97.10
26687;DHT22;14298;50.900;4.648;2023-01-15T16:40:07;5.80;97.10
26687;DHT22;14298;50.900;4.648;2023-01-15T16:42:38;5.70;97.10
26687;DHT22;14298;50.900;4.648;2023-01-15T16:45:25;5.80;97.10
26687;DHT22;14298;50.900;4.648;2023-01-15T16:48:09;5.70;97.10
26687;DHT22;14298;50.900;4.648;2023-01-15T16:50:39;5.70;97.10
26687;DHT22;14298;50.900;4.648;2023-01-15T16:53:37;5.80;97.10
26687;DHT22;14298;50.900;4.648;2023-01-15T16:58:39;5.70;97.10
26687;DHT22;14298;50.900;4.648;2023-01-15T17:01:35;5.70;97.10
26687;DHT22;14298;50.900;4.648;2023-01-15T17:04:52;5.80;97.10
26687;DHT22;14298;50.900;4.648;2023-01-15T17:06:35;5.70;97.10
26687;DHT22;14298;50.900;4.648;2023-01-15T17:09:04;5.70;97.10
26687;DHT22;14298;50.900;4.648;2023-01-15T17:11:32;5.70;97.10
26687;DHT22;14298;50.900;4.648;2023-01-15T17:14:24;5.80;97.10
26687;DHT22;14298;50.900;4.648;2023-01-15T17:19:51;5.80;97.10
26687;DHT22;14298;50.900;4.648;2023-01-15T17:22:25;5.80;97.10
26687;DHT22;14298;50.900;4.648;2023-01-15T17:24:56;5.80;97.10
26687;DHT22;14298;50.900;4.648;2023-01-15T17:27:27;5.90;97.10
26687;DHT22;14298;50.900;4.648;2023-01-15T17:29:56;5.90;97.10
26687;DHT22;14298;50.900;4.648;2023-01-15T17:32:43;5.80;97.10
26687;DHT22;14298;50.900;4.648;2023-01-15T17:35:32;5.80;97.10
26687;DHT22;14298;50.900;4.648;2023-01-15T17:38:01;5.70;97.10
26687;DHT22;14298;50.900;4.648;2023-01-15T17:40:30;5.60;97.10
26687;DHT22;14298;50.900;4.648;2023-01-15T17:42:59;5.50;97.10
26687;DHT22;14298;50.900;4.648;2023-01-15T17:45:30;5.40;97.10
26687;DHT22;14298;50.900;4.648;2023-01-15T17:47:59;5.20;97.10
26687;DHT22;14298;50.900;4.648;2023-01-15T17:50:29;5.20;97.10
26687;DHT22;14298;50.900;4.648;2023-01-15T17:52:57;5.10;97.10
26687;DHT22;14298;50.900;4.648;2023-01-15T17:55:25;5.00;97.10
26687;DHT22;14298;50.900;4.648;2023-01-15T17:58:12;5.10;97.10
26687;DHT22;14298;50.900;4.648;2023-01-15T18:01:19;5.20;97.10
26687;DHT22;14298;50.900;4.648;2023-01-15T18:04:19;5.20;97.10
26687;DHT22;14298;50.900;4.648;2023-01-15T18:07:02;5.30;97.10
26687;DHT22;14298;50.900;4.648;2023-01-15T18:09:30;5.40;97.10
26687;DHT22;14298;50.900;4.648;2023-01-15T18:12:00;5.40;97.10
26687;DHT22;14298;50.900;4.648;2023-01-15T18:14:28;5.50;97.10
26687;DHT22;14298;50.900;4.648;2023-01-15T18:16:57;5.50;97.10
26687;DHT22;14298;50.900;4.648;2023-01-15T18:19:25;5.50;97.10
26687;DHT22;14298;50.900;4.648;2023-01-15T18:21:53;5.50;97.10
26687;DHT22;14298;50.900;4.648;2023-01-15T18:24:22;5.60;97.10